Time;durP1;ratioP1;P1;durP2;ratioP2;P2;SDS_P1;SDS_P2;PMS_P1;PMS_P2;Temp;Humidity;BMP_temperature;BMP_pressure;BME280_temperature;BME280_humidity;BME280_pressure;Samples;Min_cycle;Max_cycle;Signal;HPM_P1;HPM_P2
2022/07/19 00:01:54;;;;;;;4.03;3.30;;;21.30;76.10;;;;;;6251857;28;20228;-60
2022/07/19 00:04:57;;;;;;;3.37;3.17;;;21.30;76.80;;;;;;6251183;28;20228;-60
2022/07/19 00:08:00;;;;;;;4.10;3.33;;;21.20;76.70;;;;;;6251496;28;20362;-61
2022/07/19 00:11:04;;;;;;;3.33;3.13;;;21.20;77.30;;;;;;6251045;28;20224;-61
2022/07/19 00:14:08;;;;;;;2.93;2.63;;;21.20;77.70;;;;;;6250764;28;20232;-61
2022/07/19 00:17:11;;;;;;;3.60;3.30;;;21.10;77.30;;;;;;6250333;28;20302;-62
2022/07/19 00:20:17;;;;;;;4.10;3.00;;;21.10;77.60;;;;;;6250235;28;20236;-63
2022/07/19 00:23:20;;;;;;;3.80;3.50;;;21.00;78.00;;;;;;6250907;28;20674;-62
2022/07/19 00:26:23;;;;;;;3.37;3.10;;;21.00;78.30;;;;;;6250634;28;20235;-62
2022/07/19 00:29:27;;;;;;;3.73;3.43;;;20.90;78.10;;;;;;6250504;28;20703;-63
2022/07/19 00:32:31;;;;;;;3.57;3.30;;;20.80;78.30;;;;;;6250166;28;20670;-62
2022/07/19 00:35:34;;;;;;;3.23;2.93;;;20.90;79.10;;;;;;6250579;28;20672;-62
2022/07/19 00:38:37;;;;;;;3.20;2.90;;;20.80;80.00;;;;;;6267234;28;20235;-62
2022/07/19 00:41:41;;;;;;;3.20;3.00;;;20.80;78.80;;;;;;6275003;28;20349;-62
2022/07/19 00:44:46;;;;;;;3.43;3.10;;;20.80;78.90;;;;;;6275054;28;20238;-62
2022/07/19 00:47:49;;;;;;;3.70;3.40;;;20.70;79.30;;;;;;6275109;28;20234;-62
2022/07/19 00:50:52;;;;;;;3.67;3.37;;;20.70;79.40;;;;;;6274663;28;20231;-62
2022/07/19 00:53:57;;;;;;;3.90;3.60;;;20.70;79.30;;;;;;6274850;28;20255;-62
2022/07/19 00:57:02;;;;;;;4.00;3.70;;;20.70;79.80;;;;;;6274518;28;20224;-62
2022/07/19 01:00:09;;;;;;;4.00;3.70;;;20.60;79.70;;;;;;6270192;28;20242;-62
2022/07/19 01:03:14;;;;;;;4.10;3.80;;;20.60;79.70;;;;;;6256632;28;20712;-63
2022/07/19 01:06:17;;;;;;;3.80;3.50;;;20.60;80.10;;;;;;6274386;28;20219;-63
2022/07/19 01:09:20;;;;;;;4.70;3.43;;;20.50;79.90;;;;;;6275671;28;20685;-62
2022/07/19 01:12:24;;;;;;;3.00;2.80;;;20.50;80.40;;;;;;6275644;28;20639;-62
2022/07/19 01:15:29;;;;;;;3.27;3.00;;;20.50;80.40;;;;;;6274747;28;20228;-62
2022/07/19 01:18:32;;;;;;;3.00;2.80;;;20.50;80.40;;;;;;6274139;28;20240;-62
2022/07/19 01:21:36;;;;;;;4.17;3.73;;;20.40;80.30;;;;;;6274763;28;20541;-62
2022/07/19 01:24:40;;;;;;;4.07;3.77;;;20.30;81.30;;;;;;6274474;28;20224;-62
2022/07/19 01:27:45;;;;;;;3.70;3.40;;;20.20;81.00;;;;;;6274133;28;20223;-62
2022/07/19 01:30:48;;;;;;;4.43;3.43;;;20.20;81.40;;;;;;6274275;28;20223;-62
2022/07/19 01:33:51;;;;;;;3.83;3.53;;;20.20;81.40;;;;;;6274437;28;20668;-62
2022/07/19 01:36:56;;;;;;;3.87;3.57;;;20.20;82.00;;;;;;6274075;28;20719;-62
2022/07/19 01:39:59;;;;;;;4.10;3.73;;;20.20;81.90;;;;;;6274485;28;20230;-62
2022/07/19 01:43:02;;;;;;;3.77;3.47;;;20.10;81.90;;;;;;6274522;28;20231;-62
2022/07/19 01:46:05;;;;;;;3.80;3.50;;;20.10;82.40;;;;;;6274438;28;20231;-62
2022/07/19 01:49:09;;;;;;;3.07;2.87;;;20.10;82.60;;;;;;6274273;28;20236;-62
2022/07/19 01:52:13;;;;;;;3.73;3.30;;;20.10;82.70;;;;;;6274196;28;20223;-62
2022/07/19 01:55:16;;;;;;;4.00;3.70;;;20.00;82.60;;;;;;6274124;28;20231;-62
2022/07/19 01:58:19;;;;;;;6.23;3.33;;;20.00;82.90;;;;;;6273812;28;20281;-62
2022/07/19 02:01:23;;;;;;;3.20;3.00;;;20.00;82.80;;;;;;6274368;28;20234;-62
2022/07/19 02:04:26;;;;;;;3.80;3.50;;;19.90;82.90;;;;;;6273723;28;20223;-62
2022/07/19 02:07:31;;;;;;;3.90;3.60;;;19.90;82.90;;;;;;6274364;28;20254;-62
2022/07/19 02:10:35;;;;;;;4.13;3.63;;;19.90;83.00;;;;;;6273670;28;20235;-62
2022/07/19 02:13:38;;;;;;;4.23;3.47;;;19.90;83.50;;;;;;6274086;28;20234;-62
2022/07/19 02:16:42;;;;;;;3.63;3.33;;;19.80;83.70;;;;;;6277796;28;20238;-62
2022/07/19 02:19:45;;;;;;;3.90;3.33;;;19.80;83.70;;;;;;6278210;28;20301;-62
2022/07/19 02:22:50;;;;;;;4.73;3.53;;;19.80;83.70;;;;;;6278141;28;20231;-62
2022/07/19 02:25:53;;;;;;;3.73;3.43;;;19.80;84.00;;;;;;6277979;28;20231;-62
2022/07/19 02:28:56;;;;;;;3.97;3.67;;;19.60;85.50;;;;;;6278186;28;20243;-62
2022/07/19 02:31:59;;;;;;;5.73;4.10;;;19.60;84.70;;;;;;6278027;28;20238;-62
2022/07/19 02:35:03;;;;;;;4.50;4.07;;;19.60;85.40;;;;;;6278270;28;20319;-62
2022/07/19 02:38:07;;;;;;;3.83;3.50;;;19.70;85.10;;;;;;6278022;28;20235;-62
2022/07/19 02:41:11;;;;;;;3.63;3.33;;;19.60;84.70;;;;;;6278325;28;20230;-62
2022/07/19 02:44:14;;;;;;;3.50;3.30;;;19.70;84.90;;;;;;6277627;28;20231;-62
2022/07/19 02:47:17;;;;;;;3.60;3.40;;;19.60;84.70;;;;;;6277335;28;20228;-62
2022/07/19 02:50:20;;;;;;;3.67;3.37;;;19.70;84.90;;;;;;6277496;28;20243;-62
2022/07/19 02:53:25;;;;;;;3.37;2.97;;;19.70;84.90;;;;;;6277770;28;20228;-62
2022/07/19 02:56:28;;;;;;;3.97;3.67;;;19.70;84.90;;;;;;6277516;28;20236;-62
2022/07/19 02:59:31;;;;;;;3.57;3.13;;;19.60;85.50;;;;;;6277644;28;20294;-62
2022/07/19 03:02:34;;;;;;;3.37;2.90;;;19.60;84.70;;;;;;6277544;28;20227;-62
2022/07/19 03:05:37;;;;;;;4.00;3.80;;;19.50;85.60;;;;;;6277425;28;20686;-62
2022/07/19 03:08:42;;;;;;;5.70;3.80;;;19.50;85.80;;;;;;6267640;28;20239;-62
2022/07/19 03:11:45;;;;;;;3.60;3.40;;;19.50;85.60;;;;;;6277056;28;20231;-63
2022/07/19 03:14:48;;;;;;;3.77;3.47;;;19.40;86.10;;;;;;6276962;28;20232;-62
2022/07/19 03:17:51;;;;;;;4.30;3.73;;;19.40;86.50;;;;;;6276986;28;20231;-62
2022/07/19 03:20:55;;;;;;;3.43;3.23;;;19.40;87.70;;;;;;6276847;28;20231;-62
2022/07/19 03:24:00;;;;;;;3.23;3.03;;;19.40;88.00;;;;;;6276900;28;20239;-62
2022/07/19 03:27:03;;;;;;;3.63;3.33;;;19.30;87.00;;;;;;6276676;28;20224;-62
2022/07/19 03:30:07;;;;;;;3.60;3.30;;;19.30;87.60;;;;;;6276868;28;20275;-62
2022/07/19 03:33:10;;;;;;;4.40;4.00;;;19.20;87.80;;;;;;6277252;28;20239;-62
2022/07/19 03:36:13;;;;;;;5.33;4.20;;;19.30;88.30;;;;;;6276489;28;20243;-63
2022/07/19 03:39:18;;;;;;;4.30;3.90;;;19.30;88.30;;;;;;6276839;28;20240;-63
2022/07/19 03:42:21;;;;;;;3.90;3.60;;;19.30;88.50;;;;;;6276501;28;20238;-63
2022/07/19 03:45:24;;;;;;;7.40;4.23;;;19.20;88.40;;;;;;6276260;28;20228;-63
2022/07/19 03:48:27;;;;;;;4.07;3.60;;;19.20;89.30;;;;;;6276369;28;20242;-62
2022/07/19 03:51:31;;;;;;;3.93;3.63;;;19.20;88.50;;;;;;6276336;28;20227;-62
2022/07/19 03:54:35;;;;;;;4.20;3.67;;;19.30;88.20;;;;;;6276240;28;20231;-62
2022/07/19 03:57:39;;;;;;;3.93;3.63;;;19.30;88.60;;;;;;6276156;28;20232;-63
2022/07/19 04:00:43;;;;;;;4.20;3.90;;;19.30;88.70;;;;;;6276082;28;20677;-63
2022/07/19 04:03:46;;;;;;;4.50;4.10;;;19.30;88.60;;;;;;6275763;28;20230;-63
2022/07/19 04:06:49;;;;;;;4.30;4.00;;;19.30;88.80;;;;;;6275724;28;20524;-63
2022/07/19 04:09:53;;;;;;;3.70;3.50;;;19.30;88.60;;;;;;6266126;28;20269;-63
2022/07/19 04:12:56;;;;;;;3.70;3.40;;;19.40;88.80;;;;;;6275547;28;20208;-62
2022/07/19 04:15:59;;;;;;;5.40;4.90;;;19.40;88.80;;;;;;6275438;28;20538;-64
2022/07/19 04:19:03;;;;;;;4.33;3.93;;;19.50;88.40;;;;;;6275112;28;20290;-62
2022/07/19 04:22:06;;;;;;;3.50;3.20;;;19.50;88.40;;;;;;6275754;28;20224;-62
2022/07/19 04:25:11;;;;;;;4.10;3.70;;;19.60;88.50;;;;;;6275640;28;20228;-62
2022/07/19 04:28:14;;;;;;;3.70;3.50;;;19.70;88.30;;;;;;6275000;28;20232;-64
2022/07/19 04:31:17;;;;;;;5.60;4.47;;;19.80;87.90;;;;;;6275383;28;20699;-63
2022/07/19 04:34:23;;;;;;;4.37;3.97;;;19.80;87.60;;;;;;6275215;28;20361;-62
2022/07/19 04:37:26;;;;;;;4.40;4.00;;;20.00;87.70;;;;;;6274677;28;20246;-62
2022/07/19 04:40:31;;;;;;;4.77;4.30;;;20.10;87.50;;;;;;6265685;28;20231;-63
2022/07/19 04:43:34;;;;;;;4.97;4.20;;;20.20;87.20;;;;;;6258364;28;20235;-62
2022/07/19 04:46:37;;;;;;;4.73;4.23;;;20.30;87.00;;;;;;6262595;28;20230;-62
2022/07/19 04:49:48;;;;;;;5.33;4.93;;;20.40;86.90;;;;;;6263373;28;20239;-63
2022/07/19 04:52:51;;;;;;;4.67;4.27;;;20.50;86.20;;;;;;6250390;28;20232;-62
2022/07/19 04:55:56;;;;;;;4.53;3.60;;;20.60;85.80;;;;;;6250276;28;20228;-62
2022/07/19 04:58:59;;;;;;;5.67;4.50;;;20.70;85.90;;;;;;6250083;28;20232;-62
2022/07/19 05:02:02;;;;;;;4.70;4.23;;;20.90;86.10;;;;;;6249892;28;20228;-62
2022/07/19 05:05:06;;;;;;;4.37;4.00;;;20.90;85.50;;;;;;6249818;28;20366;-62
2022/07/19 05:08:10;;;;;;;5.33;4.73;;;21.10;85.30;;;;;;6249807;28;20229;-62
2022/07/19 05:11:14;;;;;;;4.73;4.27;;;21.20;84.80;;;;;;6250207;28;20232;-62
2022/07/19 05:14:18;;;;;;;5.50;5.10;;;21.30;84.90;;;;;;6245140;28;20228;-62
2022/07/19 05:17:22;;;;;;;5.00;4.50;;;21.40;84.70;;;;;;6250124;28;20700;-62
2022/07/19 05:20:25;;;;;;;5.70;5.20;;;21.50;84.80;;;;;;6249746;28;20669;-62
2022/07/19 05:23:28;;;;;;;6.67;5.93;;;21.70;84.50;;;;;;6249818;28;20228;-62
2022/07/19 05:26:33;;;;;;;6.13;5.17;;;21.80;84.20;;;;;;6249913;28;20233;-64
2022/07/19 05:29:37;;;;;;;5.60;5.20;;;22.00;83.80;;;;;;6249701;28;20315;-63
2022/07/19 05:32:40;;;;;;;6.07;5.57;;;22.20;83.60;;;;;;6249726;28;20266;-62
2022/07/19 05:35:43;;;;;;;5.93;5.43;;;22.30;82.30;;;;;;6249562;28;20228;-62
2022/07/19 05:38:46;;;;;;;8.53;5.80;;;22.50;81.70;;;;;;6249399;28;20231;-62
2022/07/19 05:41:51;;;;;;;8.07;5.70;;;22.60;81.10;;;;;;6249336;28;20224;-63
2022/07/19 05:44:55;;;;;;;5.13;4.77;;;22.80;80.40;;;;;;6251924;28;20215;-63
2022/07/19 05:47:58;;;;;;;5.20;4.90;;;23.00;79.90;;;;;;6251897;28;20235;-63
2022/07/19 05:51:01;;;;;;;5.60;4.77;;;23.10;79.30;;;;;;6252849;28;20236;-63
2022/07/19 05:54:05;;;;;;;5.10;4.70;;;23.30;78.40;;;;;;6254290;28;20573;-63
2022/07/19 05:57:09;;;;;;;5.60;4.97;;;23.40;78.10;;;;;;6254064;28;20238;-63
2022/07/19 06:00:14;;;;;;;5.27;4.87;;;23.60;77.10;;;;;;6255282;28;20282;-63
2022/07/19 06:03:17;;;;;;;8.63;5.20;;;23.80;76.90;;;;;;6264649;28;20686;-63
2022/07/19 06:06:21;;;;;;;5.97;5.37;;;24.10;75.70;;;;;;6265707;28;20240;-63
2022/07/19 06:09:24;;;;;;;4.97;4.57;;;24.40;75.30;;;;;;6257165;28;20224;-63
2022/07/19 06:12:28;;;;;;;5.30;4.80;;;24.80;74.70;;;;;;6253807;28;20224;-63
2022/07/19 06:15:31;;;;;;;8.20;4.90;;;25.50;72.00;;;;;;6264628;28;20580;-63
2022/07/19 06:18:35;;;;;;;5.03;4.57;;;26.00;70.50;;;;;;6261226;28;20301;-64
2022/07/19 06:21:38;;;;;;;5.30;4.90;;;26.40;69.20;;;;;;6262965;28;20239;-63
2022/07/19 06:24:41;;;;;;;7.57;4.87;;;27.10;67.50;;;;;;6264443;28;20219;-63
2022/07/19 06:27:46;;;;;;;5.70;5.17;;;27.70;64.30;;;;;;6250265;28;20219;-63
2022/07/19 06:30:49;;;;;;;5.17;4.63;;;28.40;62.50;;;;;;6263100;28;20764;-63
2022/07/19 06:33:53;;;;;;;6.23;5.63;;;29.00;60.30;;;;;;6253185;28;20218;-63
2022/07/19 06:36:56;;;;;;;10.00;6.10;;;29.30;58.60;;;;;;6253268;28;20223;-63
2022/07/19 06:39:59;;;;;;;5.80;5.30;;;29.80;57.60;;;;;;6253275;28;20663;-63
2022/07/19 06:43:03;;;;;;;5.80;5.40;;;30.50;55.70;;;;;;6253723;28;20211;-63
2022/07/19 06:46:07;;;;;;;6.40;5.07;;;30.50;54.70;;;;;;6253245;28;20246;-63
2022/07/19 06:49:10;;;;;;;5.15;4.85;;;30.40;54.40;;;;;;6253275;28;20240;-63
2022/07/19 06:52:13;;;;;;;6.30;4.90;;;30.50;54.00;;;;;;6252949;28;20227;-63
2022/07/19 06:55:17;;;;;;;7.85;5.85;;;30.90;53.80;;;;;;6253048;28;20239;-63
2022/07/19 06:58:21;;;;;;;5.55;5.05;;;31.50;53.00;;;;;;6252626;28;20242;-64
2022/07/19 07:01:25;;;;;;;7.60;5.20;;;32.30;51.20;;;;;;6251470;28;20546;-64
2022/07/19 07:04:28;;;;;;;6.70;5.30;;;33.10;49.90;;;;;;6252901;28;20231;-63
2022/07/19 07:07:47;;;;;;;6.07;5.57;;;33.70;48.40;;;;;;6252503;28;20239;-63
2022/07/19 07:10:50;;;;;;;5.75;5.22;;;34.60;46.90;;;;;;6256497;28;20350;-63
2022/07/19 07:13:55;;;;;;;6.70;4.60;;;35.10;44.70;;;;;;6277318;28;20246;-64
2022/07/19 07:16:58;;;;;;;5.97;4.43;;;35.60;43.40;;;;;;6276905;28;20235;-64
2022/07/19 07:20:02;;;;;;;5.18;4.68;;;36.30;42.90;;;;;;6271703;28;20242;-64
2022/07/19 07:23:05;;;;;;;6.50;4.50;;;36.90;41.20;;;;;;6250053;28;20239;-65
2022/07/19 07:26:08;;;;;;;6.68;4.38;;;37.20;39.80;;;;;;6250853;28;20274;-65
2022/07/19 07:29:13;;;;;;;4.75;4.28;;;37.80;39.00;;;;;;6251648;28;20382;-65
2022/07/19 07:32:16;;;;;;;5.00;4.60;;;38.40;38.10;;;;;;6251712;28;20220;-65
2022/07/19 07:35:19;;;;;;;5.18;4.68;;;38.70;36.40;;;;;;6251683;28;20231;-64
2022/07/19 07:38:23;;;;;;;4.85;4.45;;;39.00;35.70;;;;;;6251921;28;20224;-64
2022/07/19 07:41:26;;;;;;;6.18;4.80;;;39.50;36.00;;;;;;6265520;28;20222;-65
2022/07/19 07:44:43;;;;;;;4.57;4.18;;;40.40;35.00;;;;;;6260417;28;20231;-65
2022/07/19 07:47:46;;;;;;;5.07;4.10;;;41.20;34.10;;;;;;6251589;28;20224;-66
2022/07/19 07:50:49;;;;;;;4.78;4.38;;;41.90;32.80;;;;;;6251362;28;20684;-65
2022/07/19 07:53:52;;;;;;;5.45;4.30;;;42.30;31.20;;;;;;6251290;28;20580;-66
2022/07/19 07:56:55;;;;;;;3.97;3.67;;;42.60;30.30;;;;;;6251226;28;20335;-66
2022/07/19 08:00:00;;;;;;;5.30;4.70;;;42.90;30.00;;;;;;6250901;28;20235;-66
2022/07/19 08:03:03;;;;;;;7.25;4.35;;;43.10;29.20;;;;;;6251040;28;20552;-66
2022/07/19 08:06:07;;;;;;;4.80;4.40;;;42.90;29.00;;;;;;6251065;28;20231;-66
2022/07/19 08:09:10;;;;;;;4.90;4.50;;;42.70;29.50;;;;;;6251038;28;20232;-66
2022/07/19 08:12:13;;;;;;;4.95;3.92;;;42.40;29.30;;;;;;6250895;28;20232;-66
2022/07/19 08:15:18;;;;;;;5.45;4.03;;;41.90;29.70;;;;;;6250738;28;20223;-66
2022/07/19 08:18:21;;;;;;;4.32;3.92;;;41.00;29.80;;;;;;6250525;28;20236;-66
2022/07/19 08:21:24;;;;;;;5.60;4.03;;;40.20;31.00;;;;;;6250654;28;20246;-66
2022/07/19 08:24:28;;;;;;;6.03;4.65;;;39.10;32.20;;;;;;6250630;28;20251;-66
2022/07/19 08:27:31;;;;;;;5.00;4.60;;;38.30;33.70;;;;;;6241296;28;20246;-66
2022/07/19 08:30:35;;;;;;;4.95;4.38;;;37.40;34.00;;;;;;6250759;28;20246;-64
2022/07/19 08:33:58;;;;;;;4.20;3.90;;;36.80;34.00;;;;;;6250464;28;20228;-65
2022/07/19 08:37:03;;;;;;;4.40;4.05;;;35.80;33.80;;;;;;6251000;28;20204;-68
2022/07/19 08:40:07;;;;;;;3.97;3.67;;;34.90;34.60;;;;;;6253802;28;20239;-69
2022/07/19 08:43:11;;;;;;;6.60;3.90;;;34.60;36.00;;;;;;6275662;28;20587;-68
2022/07/19 08:46:16;;;;;;;4.47;4.07;;;34.30;36.80;;;;;;6276131;28;20325;-68
2022/07/19 08:49:20;;;;;;;4.13;3.80;;;33.80;37.60;;;;;;6275281;28;20238;-68
2022/07/19 08:52:24;;;;;;;4.05;3.65;;;33.40;37.80;;;;;;6274780;28;20227;-69
2022/07/19 08:55:27;;;;;;;8.07;4.03;;;33.00;37.70;;;;;;6274853;28;20543;-67
2022/07/19 08:58:29;;;;;;;5.90;4.10;;;32.80;38.00;;;;;;6275165;28;20562;-69
2022/07/19 09:01:34;;;;;;;5.70;3.85;;;32.70;38.30;;;;;;6275179;28;20230;-69
2022/07/19 09:04:38;;;;;;;5.85;3.67;;;32.50;38.70;;;;;;6275175;28;20235;-69
2022/07/19 09:07:41;;;;;;;5.47;2.88;;;32.50;38.50;;;;;;6274898;28;20234;-69
2022/07/19 09:11:13;;;;;;;4.43;3.17;;;32.50;38.80;;;;;;6274971;28;20243;-69
2022/07/19 09:14:10;;;;;;;4.47;3.05;;;32.50;37.00;;;;;;6274637;28;20239;-68
2022/07/19 09:17:19;;;;;;;3.58;3.28;;;32.40;37.30;;;;;;6274635;28;20226;-68
2022/07/19 09:20:27;;;;;;;3.22;2.92;;;32.00;37.10;;;;;;6274440;28;20235;-69
2022/07/19 09:23:31;;;;;;;3.13;2.92;;;32.00;37.60;;;;;;6274663;28;20231;-69
2022/07/19 09:26:35;;;;;;;3.40;2.85;;;32.00;37.70;;;;;;6274319;28;20241;-68
2022/07/19 09:29:39;;;;;;;3.88;3.58;;;31.90;37.40;;;;;;6265022;28;20239;-69
2022/07/19 09:32:44;;;;;;;3.58;3.10;;;31.90;37.80;;;;;;6274155;28;20227;-69
2022/07/19 09:35:49;;;;;;;3.28;2.90;;;32.00;37.40;;;;;;6274371;28;20227;-68
2022/07/19 09:38:53;;;;;;;2.80;2.60;;;32.10;37.40;;;;;;6274750;28;20222;-68
2022/07/19 09:41:57;;;;;;;2.90;2.70;;;32.20;37.20;;;;;;6274078;28;20578;-68
2022/07/19 09:45:02;;;;;;;3.47;3.17;;;32.20;36.80;;;;;;6275037;28;20548;-68
2022/07/19 09:48:06;;;;;;;6.10;2.83;;;32.30;37.00;;;;;;6276202;28;20347;-68
2022/07/19 09:51:10;;;;;;;4.25;3.05;;;32.20;36.40;;;;;;6274318;28;20238;-67
2022/07/19 09:54:15;;;;;;;3.30;3.00;;;32.20;36.20;;;;;;6273963;28;20673;-68
2022/07/19 09:57:23;;;;;;;2.90;2.67;;;32.20;36.60;;;;;;6273442;28;20552;-66
2022/07/19 10:00:27;;;;;;;2.95;2.60;;;32.30;36.10;;;;;;6273249;28;20231;-66
2022/07/19 10:03:31;;;;;;;2.80;2.60;;;32.20;35.10;;;;;;6273891;28;20234;-65
2022/07/19 10:06:36;;;;;;;3.13;2.90;;;32.30;35.70;;;;;;6274478;28;20227;-65
2022/07/19 10:09:40;;;;;;;3.55;3.00;;;32.10;35.60;;;;;;6273583;28;20227;-66
2022/07/19 10:12:44;;;;;;;4.03;3.50;;;32.10;36.30;;;;;;6273846;28;20242;-65
2022/07/19 10:15:50;;;;;;;3.10;2.90;;;31.80;36.00;;;;;;6248420;28;20239;-65
2022/07/19 10:19:03;;;;;;;3.83;2.85;;;31.70;36.10;;;;;;6273384;28;20254;-65
2022/07/19 10:22:10;;;;;;;3.40;2.58;;;31.90;36.60;;;;;;6273620;28;20307;-64
2022/07/19 10:25:15;;;;;;;3.30;3.03;;;31.50;36.40;;;;;;6264678;28;20223;-64
2022/07/19 10:28:34;;;;;;;3.20;3.00;;;31.60;37.40;;;;;;6273244;28;20227;-65
2022/07/19 10:32:05;;;;;;;4.22;3.13;;;31.70;36.70;;;;;;6273618;28;20250;-65
2022/07/19 10:35:17;;;;;;;4.22;3.55;;;31.80;37.00;;;;;;6273874;28;20564;-65
2022/07/19 10:38:20;;;;;;;4.50;3.45;;;31.90;37.40;;;;;;6277730;28;20231;-65
2022/07/19 10:41:27;;;;;;;3.88;3.22;;;31.90;36.90;;;;;;6277705;28;20314;-65
2022/07/19 10:44:30;;;;;;;9.57;3.33;;;31.90;37.50;;;;;;6277985;28;20234;-65
2022/07/19 10:48:15;;;;;;;3.45;3.15;;;32.00;37.90;;;;;;6277425;28;20223;-65
2022/07/19 10:51:30;;;;;;;3.28;3.08;;;32.10;37.90;;;;;;6276802;28;20300;-66
2022/07/19 10:54:35;;;;;;;3.40;2.85;;;32.10;37.70;;;;;;6276444;28;20231;-66
2022/07/19 10:57:39;;;;;;;3.10;2.80;;;32.00;37.50;;;;;;6276665;28;20719;-66
2022/07/19 11:00:44;;;;;;;3.55;3.00;;;32.10;37.10;;;;;;6276669;28;20226;-66
2022/07/19 11:03:49;;;;;;;3.58;3.10;;;31.70;37.40;;;;;;6276842;28;20738;-64
2022/07/19 11:07:14;;;;;;;3.33;3.13;;;31.80;37.50;;;;;;6277151;28;20223;-63
2022/07/19 11:10:23;;;;;;;3.58;3.35;;;31.90;37.70;;;;;;6276965;28;20247;-62
2022/07/19 11:13:26;;;;;;;3.83;3.25;;;32.00;38.20;;;;;;6277427;28;20232;-64
2022/07/19 11:16:29;;;;;;;3.28;2.97;;;31.50;39.00;;;;;;6277118;28;20574;-62
2022/07/19 11:19:33;;;;;;;5.95;3.70;;;31.50;39.20;;;;;;6276947;28;20249;-62
2022/07/19 11:22:40;;;;;;;5.13;3.30;;;31.30;37.90;;;;;;6276679;28;20544;-62
2022/07/19 11:25:43;;;;;;;3.20;2.90;;;31.40;38.80;;;;;;6276939;28;20538;-63
2022/07/19 11:28:48;;;;;;;4.30;3.30;;;31.50;39.00;;;;;;6276865;28;20235;-61
2022/07/19 11:31:51;;;;;;;5.20;3.35;;;31.80;38.40;;;;;;6276668;28;20219;-62
2022/07/19 11:34:55;;;;;;;3.83;2.80;;;32.00;38.30;;;;;;6276131;28;20223;-63
2022/07/19 11:38:01;;;;;;;3.28;3.08;;;32.20;38.00;;;;;;6266962;28;20231;-62
2022/07/19 11:41:04;;;;;;;3.03;2.83;;;32.30;38.10;;;;;;6276639;28;20230;-63
2022/07/19 11:44:09;;;;;;;3.10;2.83;;;32.30;37.30;;;;;;6276034;28;20244;-64
2022/07/19 11:47:12;;;;;;;5.13;3.17;;;32.20;37.50;;;;;;6277396;28;20239;-62
2022/07/19 11:50:18;;;;;;;3.63;3.33;;;32.20;37.70;;;;;;6272129;28;20681;-63
2022/07/19 11:53:23;;;;;;;3.65;3.42;;;32.30;38.00;;;;;;6276357;28;20249;-64
2022/07/19 11:56:28;;;;;;;3.45;3.15;;;32.10;37.90;;;;;;6275731;28;20238;-64
2022/07/19 11:59:31;;;;;;;3.40;3.10;;;32.10;38.50;;;;;;6275547;28;20241;-64
2022/07/19 12:02:57;;;;;;;2.90;2.70;;;32.10;38.40;;;;;;6276018;28;20235;-64
2022/07/19 12:06:02;;;;;;;4.63;3.35;;;31.90;38.50;;;;;;6275837;28;20231;-65
2022/07/19 12:09:08;;;;;;;4.05;3.35;;;31.90;38.30;;;;;;6275932;28;20227;-65
2022/07/19 12:12:16;;;;;;;3.42;3.13;;;32.10;38.40;;;;;;6275621;28;20219;-64
2022/07/19 12:15:19;;;;;;;3.35;3.15;;;32.10;38.60;;;;;;6275749;28;20238;-64
2022/07/19 12:18:23;;;;;;;5.18;3.58;;;31.80;38.90;;;;;;6275251;28;20269;-69
2022/07/19 12:21:29;;;;;;;4.32;3.38;;;31.70;39.30;;;;;;6275421;28;20235;-64
2022/07/19 12:24:45;;;;;;;4.80;3.80;;;31.80;39.10;;;;;;6275225;28;20234;-64
2022/07/19 12:27:59;;;;;;;4.65;3.08;;;31.90;39.20;;;;;;6274900;28;20227;-64
2022/07/19 12:31:03;;;;;;;3.75;3.28;;;31.80;38.90;;;;;;6275445;28;20232;-65
2022/07/19 12:34:07;;;;;;;3.63;3.30;;;32.00;39.00;;;;;;6274885;28;20202;-65
2022/07/19 12:37:24;;;;;;;7.07;3.22;;;32.10;38.50;;;;;;6274999;28;20539;-64
2022/07/19 12:40:28;;;;;;;4.18;2.95;;;32.30;38.60;;;;;;6266291;28;20245;-64
2022/07/19 12:43:31;;;;;;;3.17;2.88;;;32.30;38.40;;;;;;6275228;28;20248;-64
2022/07/19 12:46:35;;;;;;;4.50;2.95;;;32.30;38.20;;;;;;6275312;28;20234;-64
2022/07/19 12:49:42;;;;;;;6.43;3.70;;;32.30;38.00;;;;;;6274523;28;20735;-64
2022/07/19 12:52:45;;;;;;;3.40;3.20;;;32.30;37.90;;;;;;6275500;28;20226;-64
2022/07/19 12:55:50;;;;;;;3.00;2.75;;;31.80;38.80;;;;;;6274619;28;20541;-64
2022/07/19 13:02:16;;;;;;;3.88;2.92;;;31.80;39.30;;;;;;6274477;28;20231;-64
2022/07/19 13:05:20;;;;;;;4.15;3.10;;;31.90;39.10;;;;;;6274698;28;20267;-64
2022/07/19 13:08:23;;;;;;;3.10;2.90;;;32.00;38.60;;;;;;6274354;28;20300;-65
2022/07/19 13:11:27;;;;;;;3.60;3.30;;;31.80;38.90;;;;;;6274197;28;20226;-66
2022/07/19 13:14:31;;;;;;;4.85;3.50;;;31.90;39.00;;;;;;6274661;28;20310;-63
2022/07/19 13:17:34;;;;;;;3.25;2.90;;;31.90;38.50;;;;;;6274130;28;20234;-63
2022/07/19 13:20:37;;;;;;;3.88;3.03;;;31.90;39.10;;;;;;6271635;28;20237;-63
2022/07/19 13:23:40;;;;;;;3.88;2.58;;;31.90;39.30;;;;;;6249524;28;20227;-64
2022/07/19 13:26:45;;;;;;;3.40;3.10;;;31.90;39.40;;;;;;6274111;28;20238;-63
2022/07/19 13:29:48;;;;;;;3.05;2.47;;;31.80;39.10;;;;;;6274107;28;20384;-64
2022/07/19 13:32:51;;;;;;;3.47;3.17;;;31.20;39.70;;;;;;6274552;28;20238;-64
2022/07/19 13:35:55;;;;;;;3.60;3.30;;;31.00;40.40;;;;;;6274353;28;20237;-63
2022/07/19 13:39:02;;;;;;;4.63;3.20;;;31.10;39.90;;;;;;6274160;28;20250;-63
2022/07/19 13:42:06;;;;;;;3.28;2.97;;;31.30;39.80;;;;;;6273863;28;20231;-64
2022/07/19 13:45:10;;;;;;;4.47;3.00;;;31.50;39.30;;;;;;6269792;28;20237;-63
2022/07/19 13:48:13;;;;;;;3.55;3.25;;;31.30;39.80;;;;;;6274111;28;20230;-64
2022/07/19 13:51:17;;;;;;;3.25;2.95;;;31.40;39.60;;;;;;6273158;28;20234;-64
2022/07/19 13:54:21;;;;;;;3.58;2.35;;;31.50;39.40;;;;;;6273783;28;20219;-64
2022/07/19 13:57:25;;;;;;;2.92;2.72;;;31.70;39.30;;;;;;6273591;28;20310;-64
2022/07/19 14:00:29;;;;;;;2.70;2.50;;;31.70;38.90;;;;;;6273592;28;20554;-64
2022/07/19 14:03:32;;;;;;;4.32;2.80;;;31.40;38.70;;;;;;6273799;28;20242;-64
2022/07/19 14:06:35;;;;;;;4.50;2.95;;;31.00;39.70;;;;;;6274045;28;20237;-64
2022/07/19 14:09:38;;;;;;;3.00;2.80;;;31.10;39.90;;;;;;6273380;28;20234;-64
2022/07/19 14:12:48;;;;;;;3.75;2.88;;;31.20;39.60;;;;;;6278024;28;20389;-64
2022/07/19 14:16:11;;;;;;;3.42;3.10;;;31.40;39.90;;;;;;6278379;28;20668;-64
2022/07/19 14:19:14;;;;;;;4.05;3.30;;;31.20;39.70;;;;;;6278138;28;20735;-63
2022/07/19 14:22:18;;;;;;;2.70;2.50;;;31.30;39.60;;;;;;6278434;28;20230;-63
2022/07/19 14:25:22;;;;;;;3.05;2.85;;;31.40;39.30;;;;;;6277853;28;20653;-63
2022/07/19 14:28:26;;;;;;;3.53;2.80;;;31.40;38.40;;;;;;6278377;28;20238;-63
2022/07/19 14:31:29;;;;;;;4.90;2.65;;;31.40;38.50;;;;;;6279907;28;20231;-64
2022/07/19 14:34:33;;;;;;;6.53;3.08;;;31.50;39.10;;;;;;6279700;28;20227;-64
2022/07/19 14:37:39;;;;;;;5.22;2.85;;;31.50;38.70;;;;;;6277460;28;20575;-64
2022/07/19 14:40:42;;;;;;;2.88;2.67;;;31.50;39.00;;;;;;6280148;28;20233;-69
2022/07/19 14:43:47;;;;;;;2.88;2.58;;;31.50;39.00;;;;;;6281191;28;20238;-68
2022/07/19 14:46:50;;;;;;;2.60;2.40;;;31.50;39.00;;;;;;6279056;28;20582;-68
2022/07/19 14:49:54;;;;;;;3.22;3.03;;;31.50;39.00;;;;;;6291005;28;20278;-68
2022/07/19 14:52:57;;;;;;;2.85;2.65;;;31.60;38.50;;;;;;6285219;28;20322;-68
2022/07/19 14:56:00;;;;;;;3.42;2.85;;;31.20;39.00;;;;;;6277398;28;20242;-69
2022/07/19 14:59:05;;;;;;;2.88;2.67;;;31.10;39.50;;;;;;6277949;28;20235;-69
2022/07/19 15:02:08;;;;;;;3.92;2.50;;;31.30;39.70;;;;;;6277218;28;20281;-69
2022/07/19 15:05:11;;;;;;;8.25;7.65;;;31.40;39.30;;;;;;6277384;28;20222;-69
2022/07/19 15:08:15;;;;;;;5.90;3.50;;;31.50;39.50;;;;;;6277178;28;20242;-68
2022/07/19 15:11:18;;;;;;;3.20;3.00;;;31.50;40.10;;;;;;6277293;28;20234;-69
2022/07/19 15:14:22;;;;;;;3.67;3.35;;;31.50;39.20;;;;;;6277451;28;20227;-68
2022/07/19 15:17:25;;;;;;;4.10;2.88;;;31.50;39.70;;;;;;6280250;28;20854;-68
2022/07/19 15:20:29;;;;;;;3.28;2.70;;;31.50;39.20;;;;;;6277381;28;20227;-69
2022/07/19 15:23:33;;;;;;;5.22;2.65;;;31.50;39.20;;;;;;6275981;28;20673;-68
2022/07/19 15:26:36;;;;;;;2.63;2.40;;;31.50;39.30;;;;;;6277537;28;20684;-69
2022/07/19 15:29:42;;;;;;;3.53;2.70;;;31.60;39.10;;;;;;6276805;28;20570;-68
2022/07/19 15:32:46;;;;;;;2.72;2.53;;;31.70;39.20;;;;;;6277206;28;20223;-69
2022/07/19 15:35:49;;;;;;;4.90;2.47;;;31.70;38.80;;;;;;6283629;28;20227;-68
2022/07/19 15:38:52;;;;;;;3.22;2.92;;;31.80;39.00;;;;;;6281976;28;20227;-68
2022/07/19 15:41:57;;;;;;;3.28;2.92;;;31.90;38.90;;;;;;6282102;28;20700;-69
2022/07/19 15:45:02;;;;;;;4.72;3.08;;;31.80;38.80;;;;;;6281731;28;20233;-69
2022/07/19 15:48:05;;;;;;;5.20;2.97;;;31.70;39.10;;;;;;6270510;28;20235;-68
2022/07/19 15:51:09;;;;;;;2.88;2.67;;;31.70;39.10;;;;;;6255723;28;20231;-68
2022/07/19 15:54:13;;;;;;;5.35;2.80;;;31.60;39.30;;;;;;6255263;28;20230;-69
2022/07/19 15:57:16;;;;;;;3.47;2.58;;;31.60;39.60;;;;;;6276255;28;20237;-70
2022/07/19 16:00:21;;;;;;;2.60;2.40;;;31.60;39.60;;;;;;6276517;28;20254;-69
2022/07/19 16:03:25;;;;;;;4.05;2.70;;;31.60;39.40;;;;;;6280228;28;20239;-68
2022/07/19 16:06:28;;;;;;;2.70;2.50;;;31.60;39.30;;;;;;6284060;28;20313;-68